Time;durP1;ratioP1;P1;durP2;ratioP2;P2;SDS_P1;SDS_P2;PMS_P1;PMS_P2;Temp;Humidity;BMP_temperature;BMP_pressure;BME280_temperature;BME280_humidity;BME280_pressure;Samples;Min_cycle;Max_cycle;Signal;HPM_P1;HPM_P2
2021/07/13 00:01:52;;;;;;;5.07;4.57;;;20.50;99.90;;;;;;5012422;28;20228;-62
2021/07/13 00:04:19;;;;;;;5.43;4.87;;;20.50;99.90;;;;;;5012238;28;20566;-61
2021/07/13 00:06:48;;;;;;;6.37;5.00;;;20.50;99.90;;;;;;5011918;28;20223;-63
2021/07/13 00:09:15;;;;;;;6.17;4.30;;;20.50;99.90;;;;;;5011978;28;20257;-60
2021/07/13 00:11:41;;;;;;;8.80;4.90;;;20.50;99.90;;;;;;5012070;28;20310;-61
2021/07/13 00:14:08;;;;;;;5.80;5.20;;;20.50;99.90;;;;;;5012307;28;20207;-59
2021/07/13 00:16:35;;;;;;;6.00;5.00;;;20.50;99.90;;;;;;5011981;28;20235;-62
2021/07/13 00:19:01;;;;;;;5.83;5.10;;;20.50;99.90;;;;;;5012354;28;20211;-61
2021/07/13 00:21:28;;;;;;;5.13;4.57;;;20.40;99.90;;;;;;5012023;28;20207;-63
2021/07/13 00:23:56;;;;;;;7.00;5.03;;;20.40;99.90;;;;;;5012235;28;20210;-61
2021/07/13 00:26:24;;;;;;;6.80;5.27;;;20.40;99.90;;;;;;5011876;28;20238;-62
2021/07/13 00:28:50;;;;;;;5.57;5.00;;;20.40;1.00;;;;;;5011950;28;20214;-62
2021/07/13 00:31:17;;;;;;;6.57;4.57;;;20.40;1.00;;;;;;5011575;28;20241;-62
2021/07/13 00:33:44;;;;;;;5.23;4.70;;;20.40;99.90;;;;;;5011525;28;20264;-62
2021/07/13 00:36:10;;;;;;;6.00;5.27;;;20.40;99.90;;;;;;5013651;28;20758;-61
2021/07/13 00:38:37;;;;;;;9.37;5.00;;;20.40;99.90;;;;;;5015462;28;20257;-62
2021/07/13 00:41:05;;;;;;;7.20;5.00;;;20.40;99.90;;;;;;5015225;28;20265;-61
2021/07/13 00:43:32;;;;;;;6.60;5.07;;;20.40;99.90;;;;;;5015172;28;20258;-61
2021/07/13 00:45:59;;;;;;;7.27;5.40;;;20.40;1.00;;;;;;5015235;28;20210;-61
2021/07/13 00:48:26;;;;;;;5.37;4.87;;;20.30;1.00;;;;;;5014722;28;20223;-62
2021/07/13 00:50:54;;;;;;;8.20;4.83;;;20.10;1.00;;;;;;5015170;28;20211;-61
2021/07/13 00:53:22;;;;;;;6.80;5.17;;;20.10;1.00;;;;;;5015395;28;20341;-61
2021/07/13 00:55:48;;;;;;;6.67;5.37;;;20.10;1.00;;;;;;5014969;28;20262;-61
2021/07/13 00:58:16;;;;;;;5.57;5.07;;;20.00;1.00;;;;;;5014790;28;20227;-62
2021/07/13 01:00:43;;;;;;;6.90;5.20;;;20.00;1.00;;;;;;5015207;28;20206;-61
2021/07/13 01:03:10;;;;;;;7.50;6.17;;;19.90;1.00;;;;;;5014548;28;20258;-62
2021/07/13 01:05:40;;;;;;;7.97;5.47;;;19.90;1.00;;;;;;5014892;28;20235;-62
2021/07/13 01:08:18;;;;;;;6.97;5.60;;;19.90;1.00;;;;;;5014591;28;20227;-62
2021/07/13 01:10:52;;;;;;;5.50;5.00;;;20.00;1.00;;;;;;5014606;28;20687;-61
2021/07/13 01:13:29;;;;;;;7.33;5.10;;;20.00;1.00;;;;;;5014523;28;20586;-62
2021/07/13 01:16:03;;;;;;;6.77;5.10;;;20.00;1.00;;;;;;5014882;28;20210;-61
2021/07/13 01:18:34;;;;;;;6.47;4.70;;;20.00;1.00;;;;;;5014519;28;20249;-63
2021/07/13 01:21:18;;;;;;;6.23;5.17;;;19.90;1.00;;;;;;5014678;28;20206;-61
2021/07/13 01:24:02;;;;;;;6.73;5.03;;;20.00;1.00;;;;;;5014105;28;20211;-62
2021/07/13 01:26:38;;;;;;;5.63;5.03;;;20.00;1.00;;;;;;5014540;28;20235;-62
2021/07/13 01:29:10;;;;;;;7.87;5.70;;;20.00;1.00;;;;;;5014343;28;20206;-62
2021/07/13 01:31:40;;;;;;;9.40;5.37;;;19.90;1.00;;;;;;5014459;28;20219;-61
2021/07/13 01:34:11;;;;;;;7.23;5.87;;;19.90;1.00;;;;;;5014092;28;20263;-61
2021/07/13 01:36:42;;;;;;;6.83;5.73;;;20.00;1.00;;;;;;5014240;28;20235;-61
2021/07/13 01:39:10;;;;;;;7.07;5.60;;;19.90;1.00;;;;;;5014307;28;20346;-61
2021/07/13 01:41:37;;;;;;;7.97;5.97;;;20.00;1.00;;;;;;5014060;28;20207;-62
2021/07/13 01:44:06;;;;;;;8.73;6.00;;;20.00;1.00;;;;;;5013991;28;20268;-62
2021/07/13 01:46:33;;;;;;;7.10;5.77;;;20.00;1.00;;;;;;5013382;28;20227;-61
2021/07/13 01:49:02;;;;;;;6.40;5.70;;;20.00;1.00;;;;;;5013516;28;20732;-61
2021/07/13 01:51:31;;;;;;;8.37;5.33;;;20.00;1.00;;;;;;5014123;28;20211;-62
2021/07/13 01:54:05;;;;;;;6.80;6.07;;;20.00;1.00;;;;;;5013772;28;20667;-61
2021/07/13 01:56:33;;;;;;;9.60;5.93;;;20.00;1.00;;;;;;5013590;28;20226;-62
2021/07/13 01:59:00;;;;;;;8.57;6.17;;;20.00;1.00;;;;;;5013791;28;20211;-62
2021/07/13 02:01:31;;;;;;;7.43;6.03;;;20.00;1.00;;;;;;5013479;28;20207;-62
2021/07/13 02:04:00;;;;;;;10.63;6.90;;;20.00;1.00;;;;;;5013685;28;20581;-62
2021/07/13 02:06:27;;;;;;;7.30;6.60;;;20.00;1.00;;;;;;5013523;28;20591;-62
2021/07/13 02:08:58;;;;;;;7.40;6.60;;;20.00;1.00;;;;;;5013692;28;20265;-61
2021/07/13 02:11:26;;;;;;;8.20;5.67;;;20.00;1.00;;;;;;5013715;28;20203;-61
2021/07/13 02:13:53;;;;;;;6.43;5.83;;;20.00;1.00;;;;;;5013259;28;20211;-61
2021/07/13 02:16:20;;;;;;;8.10;6.20;;;20.00;1.00;;;;;;5013339;28;20668;-62
2021/07/13 02:18:49;;;;;;;7.97;6.90;;;19.90;1.00;;;;;;5013432;28;20581;-61
2021/07/13 02:21:16;;;;;;;10.90;8.57;;;20.00;1.00;;;;;;5013568;28;20559;-62
2021/07/13 02:23:43;;;;;;;14.67;9.57;;;20.00;1.00;;;;;;5013215;28;20215;-61
2021/07/13 02:26:13;;;;;;;13.90;10.57;;;20.00;1.00;;;;;;5013151;28;20211;-62
2021/07/13 02:28:44;;;;;;;16.60;11.20;;;19.90;1.00;;;;;;5013106;28;20207;-61
2021/07/13 02:31:15;;;;;;;15.93;11.17;;;19.90;1.00;;;;;;5013384;28;20570;-61
2021/07/13 02:33:46;;;;;;;15.93;11.37;;;19.80;1.00;;;;;;5012893;28;20742;-62
2021/07/13 02:36:18;;;;;;;13.20;10.60;;;19.60;1.00;;;;;;5013152;28;20210;-61
2021/07/13 02:38:46;;;;;;;15.97;10.93;;;19.60;1.00;;;;;;5012771;28;20273;-62
2021/07/13 02:41:15;;;;;;;12.97;10.73;;;19.60;1.00;;;;;;5012989;28;20671;-61
2021/07/13 02:43:42;;;;;;;13.03;9.50;;;19.60;1.00;;;;;;5012823;28;20214;-61
2021/07/13 02:46:09;;;;;;;13.30;10.53;;;19.60;1.00;;;;;;5013136;28;20619;-62
2021/07/13 02:48:37;;;;;;;11.53;9.83;;;19.70;1.00;;;;;;5012635;28;20734;-62
2021/07/13 02:51:05;;;;;;;14.37;9.40;;;19.70;1.00;;;;;;5012929;28;20265;-61
2021/07/13 02:53:34;;;;;;;11.67;9.30;;;19.70;1.00;;;;;;5012619;28;20215;-61
2021/07/13 02:56:02;;;;;;;12.80;9.43;;;19.70;1.00;;;;;;5012799;28;20211;-61
2021/07/13 02:58:30;;;;;;;11.07;8.07;;;19.70;1.00;;;;;;5012636;28;20282;-61
2021/07/13 03:00:58;;;;;;;11.83;9.00;;;19.80;1.00;;;;;;5012673;28;20211;-62
2021/07/13 03:03:25;;;;;;;12.03;9.03;;;19.80;1.00;;;;;;5012606;28;20207;-64
2021/07/13 03:05:53;;;;;;;10.17;9.03;;;19.80;1.00;;;;;;5012365;28;20215;-62
2021/07/13 03:08:21;;;;;;;13.73;9.13;;;19.80;1.00;;;;;;5012450;28;20320;-61
2021/07/13 03:10:50;;;;;;;9.87;8.70;;;19.80;1.00;;;;;;5012629;28;20217;-61
2021/07/13 03:13:20;;;;;;;11.97;8.77;;;19.80;1.00;;;;;;5012651;28;20214;-61
2021/07/13 03:15:49;;;;;;;14.50;9.27;;;19.80;1.00;;;;;;5012535;28;20280;-61
2021/07/13 03:18:16;;;;;;;10.03;8.93;;;19.80;1.00;;;;;;5012409;28;20227;-62
2021/07/13 03:20:46;;;;;;;13.43;8.90;;;19.80;10.30;;;;;;5012394;28;20210;-62
2021/07/13 03:23:15;;;;;;;11.40;9.07;;;19.80;99.90;;;;;;5012455;28;20253;-62
2021/07/13 03:25:43;;;;;;;11.80;9.33;;;19.70;99.90;;;;;;5012098;28;20207;-61
2021/07/13 03:28:13;;;;;;;10.47;9.37;;;19.60;99.90;;;;;;5012344;28;20285;-61
2021/07/13 03:30:41;;;;;;;11.73;9.50;;;19.60;29.40;;;;;;5012431;28;20636;-61
2021/07/13 03:33:10;;;;;;;11.03;9.53;;;19.50;1.00;;;;;;5012037;28;20210;-61
2021/07/13 03:35:38;;;;;;;11.33;9.37;;;19.50;1.00;;;;;;5012344;28;20214;-62
2021/07/13 03:38:04;;;;;;;12.67;8.70;;;19.40;1.00;;;;;;5012196;28;20235;-61
2021/07/13 03:40:31;;;;;;;12.07;8.90;;;19.40;1.00;;;;;;5012163;28;20675;-62
2021/07/13 03:42:58;;;;;;;11.07;8.13;;;19.40;99.90;;;;;;5012177;28;20338;-62
2021/07/13 03:45:29;;;;;;;10.17;9.17;;;19.40;99.90;;;;;;5011898;28;20680;-62
2021/07/13 03:47:57;;;;;;;9.90;8.60;;;19.30;99.90;;;;;;5012251;28;20710;-62
2021/07/13 03:50:29;;;;;;;12.57;9.47;;;19.30;1.00;;;;;;5012213;28;20207;-62
2021/07/13 03:52:55;;;;;;;11.93;9.20;;;19.20;89.50;;;;;;5012275;28;20253;-62
2021/07/13 03:55:22;;;;;;;10.57;9.30;;;19.10;99.90;;;;;;5011960;28;20215;-62
2021/07/13 03:57:52;;;;;;;13.53;10.53;;;19.10;1.00;;;;;;5011879;28;20646;-62
2021/07/13 04:00:20;;;;;;;13.20;10.10;;;19.10;99.90;;;;;;5012228;28;20238;-62
2021/07/13 04:02:48;;;;;;;14.13;10.10;;;19.10;99.90;;;;;;5012008;28;20229;-62
2021/07/13 04:05:15;;;;;;;13.97;10.40;;;19.10;1.00;;;;;;5009987;28;20257;-62
2021/07/13 04:07:42;;;;;;;12.00;10.70;;;19.10;1.00;;;;;;5011655;28;20238;-61
2021/07/13 04:10:11;;;;;;;13.90;10.87;;;19.10;1.00;;;;;;5012583;28;20207;-61
2021/07/13 04:12:38;;;;;;;14.53;10.77;;;19.00;1.00;;;;;;5014965;28;20293;-64
2021/07/13 04:15:06;;;;;;;16.60;11.73;;;19.00;1.00;;;;;;5013751;28;20203;-63
2021/07/13 04:17:32;;;;;;;12.73;10.80;;;19.00;99.90;;;;;;5015082;28;20234;-64
2021/07/13 04:20:00;;;;;;;14.77;11.83;;;19.00;1.00;;;;;;5015653;28;20234;-63
2021/07/13 04:22:27;;;;;;;13.07;11.00;;;19.00;1.00;;;;;;5016161;28;20257;-62
2021/07/13 04:24:53;;;;;;;12.10;10.73;;;19.00;1.00;;;;;;5015889;28;20214;-63
2021/07/13 04:27:20;;;;;;;13.50;10.97;;;19.00;33.30;;;;;;5016037;28;20223;-63
2021/07/13 04:29:47;;;;;;;13.50;11.37;;;19.00;1.00;;;;;;5015277;28;20256;-64
2021/07/13 04:32:13;;;;;;;12.97;11.03;;;19.00;1.00;;;;;;5015641;28;20211;-64
2021/07/13 04:34:40;;;;;;;14.43;11.97;;;19.00;1.00;;;;;;5015083;28;20207;-62
2021/07/13 04:37:08;;;;;;;16.67;12.83;;;19.00;1.00;;;;;;5015104;28;20285;-64
2021/07/13 04:39:35;;;;;;;14.10;12.60;;;18.90;76.80;;;;;;5014978;28;20255;-64
2021/07/13 04:42:01;;;;;;;14.90;12.90;;;18.90;99.90;;;;;;5015274;28;20211;-64
2021/07/13 04:44:28;;;;;;;17.40;12.93;;;18.90;99.90;;;;;;5015128;28;20207;-63
2021/07/13 04:46:55;;;;;;;14.23;12.43;;;19.00;1.00;;;;;;5015004;28;20602;-64
2021/07/13 04:49:21;;;;;;;12.43;10.60;;;19.00;1.00;;;;;;5015163;28;20206;-64
2021/07/13 04:51:48;;;;;;;13.20;11.80;;;19.00;99.90;;;;;;5014736;28;20207;-64
2021/07/13 04:54:16;;;;;;;16.00;12.53;;;19.00;1.00;;;;;;5014782;28;20563;-63
2021/07/13 04:56:43;;;;;;;13.40;11.47;;;19.00;1.00;;;;;;5014534;28;20227;-63
2021/07/13 04:59:09;;;;;;;14.87;13.03;;;19.00;5.60;;;;;;5014953;28;20231;-64
2021/07/13 05:01:36;;;;;;;18.07;13.77;;;18.90;99.90;;;;;;5014786;28;20215;-63
2021/07/13 05:04:03;;;;;;;15.47;13.33;;;18.80;1.00;;;;;;5014727;28;20211;-63
2021/07/13 05:06:29;;;;;;;19.87;14.13;;;18.70;99.90;;;;;;5014369;28;20209;-63
2021/07/13 05:08:56;;;;;;;18.07;15.00;;;18.60;99.90;;;;;;5014898;28;20207;-64
2021/07/13 05:11:24;;;;;;;20.67;15.60;;;18.50;99.90;;;;;;5014751;28;20203;-64
2021/07/13 05:13:51;;;;;;;19.50;14.40;;;18.50;99.90;;;;;;5014646;28;20203;-64
2021/07/13 05:16:17;;;;;;;19.80;14.83;;;18.50;1.00;;;;;;5014584;28;20273;-64
2021/07/13 05:18:44;;;;;;;17.70;13.77;;;18.70;1.00;;;;;;5013299;28;20227;-63
2021/07/13 05:21:12;;;;;;;15.87;13.10;;;18.70;99.90;;;;;;5013459;28;20211;-62
2021/07/13 05:23:39;;;;;;;17.67;13.17;;;18.70;1.00;;;;;;5013530;28;20211;-63
2021/07/13 05:26:06;;;;;;;15.97;13.60;;;18.80;1.00;;;;;;5014717;28;20210;-63
2021/07/13 05:28:34;;;;;;;16.17;14.27;;;18.90;1.00;;;;;;5011508;28;20226;-63
2021/07/13 05:31:01;;;;;;;16.30;14.07;;;19.00;1.00;;;;;;5013009;28;20298;-62
2021/07/13 05:33:28;;;;;;;18.93;15.63;;;19.00;99.90;;;;;;4994950;28;20203;-64
2021/07/13 05:35:54;;;;;;;18.20;14.77;;;19.10;66.90;;;;;;4994016;28;20251;-63
2021/07/13 05:38:21;;;;;;;18.97;15.40;;;19.10;1.00;;;;;;4994027;28;20231;-63
2021/07/13 05:40:48;;;;;;;18.77;15.07;;;19.10;99.90;;;;;;4994199;28;20668;-63
2021/07/13 05:43:15;;;;;;;19.30;15.00;;;19.20;99.90;;;;;;4994037;28;20216;-64
2021/07/13 05:45:43;;;;;;;19.93;15.37;;;19.20;1.00;;;;;;4994227;28;20215;-63
2021/07/13 05:48:10;;;;;;;18.03;15.73;;;19.20;1.00;;;;;;4994034;28;20232;-64
2021/07/13 05:50:37;;;;;;;19.80;16.63;;;19.20;86.90;;;;;;4993653;28;20627;-65
2021/07/13 05:53:05;;;;;;;20.83;16.67;;;19.10;99.90;;;;;;4994113;28;20270;-65
2021/07/13 05:55:31;;;;;;;20.37;16.83;;;19.10;99.90;;;;;;5011690;28;20211;-64
2021/07/13 05:57:58;;;;;;;21.70;16.47;;;19.10;99.90;;;;;;5013554;28;20231;-63
2021/07/13 06:00:25;;;;;;;19.20;15.03;;;19.20;99.90;;;;;;5013196;28;20210;-64
2021/07/13 06:02:53;;;;;;;20.50;16.60;;;19.20;1.00;;;;;;5013325;28;20207;-63
2021/07/13 06:05:19;;;;;;;23.27;17.67;;;19.20;1.00;;;;;;5012984;28;20644;-64
2021/07/13 06:07:48;;;;;;;24.20;19.07;;;19.20;99.90;;;;;;5013448;28;20239;-64
2021/07/13 06:10:16;;;;;;;24.60;19.87;;;19.20;1.00;;;;;;5013096;28;20234;-65
2021/07/13 06:12:43;;;;;;;28.43;21.00;;;19.10;99.90;;;;;;5013357;28;20702;-62
2021/07/13 06:15:11;;;;;;;29.17;22.93;;;19.00;1.00;;;;;;5012992;28;20273;-62
2021/07/13 06:17:40;;;;;;;32.97;22.13;;;19.00;1.00;;;;;;5012467;28;20238;-61
2021/07/13 06:20:10;;;;;;;31.73;22.57;;;19.00;1.00;;;;;;5012405;28;20237;-63
2021/07/13 06:22:36;;;;;;;32.60;24.60;;;19.00;1.00;;;;;;5012903;28;20207;-63
2021/07/13 06:25:04;;;;;;;30.83;22.47;;;19.00;59.30;;;;;;5012837;28;20215;-63
2021/07/13 06:27:30;;;;;;;32.80;24.97;;;19.00;99.90;;;;;;5012972;28;20229;-64
2021/07/13 06:29:57;;;;;;;32.50;25.33;;;18.80;99.90;;;;;;5012688;28;20206;-62
2021/07/13 06:32:24;;;;;;;37.57;27.87;;;18.70;99.90;;;;;;5012323;28;20253;-64
2021/07/13 06:34:50;;;;;;;37.00;27.70;;;18.60;1.00;;;;;;5012105;28;20622;-62
2021/07/13 06:37:18;;;;;;;44.87;29.43;;;18.60;1.00;;;;;;5012724;28;20222;-62
2021/07/13 06:39:45;;;;;;;40.40;29.47;;;18.60;89.20;;;;;;5012292;28;20226;-62
2021/07/13 06:42:12;;;;;;;44.23;31.43;;;18.50;99.90;;;;;;5012615;28;20207;-63
2021/07/13 06:44:39;;;;;;;42.20;31.03;;;18.50;99.90;;;;;;5012203;28;20633;-63
2021/07/13 06:47:05;;;;;;;40.53;31.20;;;18.50;99.90;;;;;;5012525;28;20231;-62
2021/07/13 06:49:32;;;;;;;46.83;32.70;;;18.60;99.90;;;;;;5012346;28;20252;-63
2021/07/13 06:51:59;;;;;;;48.23;35.43;;;18.50;99.90;;;;;;5012561;28;20207;-62
2021/07/13 06:54:27;;;;;;;50.90;36.07;;;18.50;99.90;;;;;;5012229;28;20215;-62
2021/07/13 06:56:53;;;;;;;50.67;34.33;;;18.60;1.00;;;;;;5012279;28;20252;-62
2021/07/13 06:59:20;;;;;;;57.67;37.10;;;18.70;1.00;;;;;;5011716;28;20706;-63
2021/07/13 07:01:47;;;;;;;53.80;37.83;;;18.70;1.00;;;;;;5012220;28;20211;-64
2021/07/13 07:04:13;;;;;;;59.73;39.27;;;18.70;1.00;;;;;;5012339;28;20268;-64
2021/07/13 07:06:40;;;;;;;59.53;41.00;;;18.70;1.00;;;;;;5012009;28;20226;-62
2021/07/13 07:09:07;;;;;;;64.57;42.67;;;18.70;1.00;;;;;;5012190;28;20629;-61
2021/07/13 07:11:35;;;;;;;66.50;44.80;;;18.70;1.00;;;;;;5011882;28;20891;-62
2021/07/13 07:14:01;;;;;;;67.47;43.60;;;18.70;1.00;;;;;;5012100;28;20249;-62
2021/07/13 07:16:28;;;;;;;71.70;46.27;;;18.70;1.00;;;;;;5012067;28;20637;-62
2021/07/13 07:18:54;;;;;;;63.27;42.37;;;18.80;1.00;;;;;;5011897;28;20278;-62
2021/07/13 07:21:21;;;;;;;62.93;44.03;;;18.80;1.00;;;;;;5011990;28;20682;-62
2021/07/13 07:23:48;;;;;;;58.80;41.67;;;18.90;1.00;;;;;;5011756;28;20211;-61
2021/07/13 07:26:15;;;;;;;55.80;40.67;;;19.00;1.00;;;;;;5011769;28;20643;-63
2021/07/13 07:28:43;;;;;;;59.73;42.33;;;19.00;1.00;;;;;;5012034;28;20210;-64
2021/07/13 07:31:10;;;;;;;59.10;39.73;;;19.00;1.00;;;;;;5011905;28;20261;-63
2021/07/13 07:33:37;;;;;;;55.17;39.07;;;19.00;1.00;;;;;;5011581;28;20214;-63
2021/07/13 07:36:04;;;;;;;55.03;39.90;;;19.00;1.00;;;;;;5012238;28;20640;-63
2021/07/13 07:38:31;;;;;;;54.60;40.00;;;19.00;1.00;;;;;;5011776;28;20231;-64
2021/07/13 07:40:58;;;;;;;60.07;41.70;;;19.00;1.00;;;;;;5011751;28;20203;-65
2021/07/13 07:43:24;;;;;;;53.43;40.40;;;19.10;1.00;;;;;;5011840;28;20797;-62
2021/07/13 07:45:53;;;;;;;60.57;42.40;;;19.20;1.00;;;;;;5013637;28;20658;-62
2021/07/13 07:48:19;;;;;;;57.93;42.67;;;19.30;99.90;;;;;;5015920;28;20230;-63
2021/07/13 07:50:46;;;;;;;60.33;43.83;;;19.30;99.90;;;;;;5015221;28;20668;-62
2021/07/13 07:53:12;;;;;;;55.80;40.00;;;19.30;99.90;;;;;;5015717;28;20733;-63
2021/07/13 07:55:39;;;;;;;53.37;39.93;;;19.50;99.90;;;;;;5015227;28;20749;-62
2021/07/13 07:58:07;;;;;;;58.70;41.97;;;19.50;58.90;;;;;;5015707;28;20277;-62
2021/07/13 08:00:34;;;;;;;53.90;40.77;;;19.50;29.00;;;;;;5015163;28;20230;-63
2021/07/13 08:03:02;;;;;;;57.70;43.37;;;19.60;1.00;;;;;;5015389;28;20245;-66
2021/07/13 08:05:32;;;;;;;52.73;40.17;;;19.50;1.00;;;;;;5015426;28;20207;-65
2021/07/13 08:07:59;;;;;;;61.37;41.53;;;19.50;1.00;;;;;;5052957;23;20362;-66
2021/07/13 08:10:26;;;;;;;58.83;42.53;;;19.50;1.00;;;;;;4976077;28;20205;-67
2021/07/13 08:12:52;;;;;;;58.40;41.73;;;19.50;99.90;;;;;;4976462;28;20267;-61
2021/07/13 08:15:19;;;;;;;54.47;40.80;;;19.60;1.00;;;;;;4976505;28;20212;-63
2021/07/13 08:17:46;;;;;;;55.67;42.40;;;19.60;99.90;;;;;;4976334;28;20228;-66
2021/07/13 08:20:15;;;;;;;61.37;44.43;;;19.70;99.90;;;;;;4975881;28;20309;-67
2021/07/13 08:22:45;;;;;;;60.97;43.17;;;19.70;1.00;;;;;;4976006;28;20204;-67
2021/07/13 08:25:13;;;;;;;61.33;44.43;;;19.70;99.90;;;;;;4979684;28;20204;-66
2021/07/13 08:27:39;;;;;;;65.20;46.80;;;19.80;84.90;;;;;;4985357;28;20228;-66
2021/07/13 08:30:07;;;;;;;60.50;45.07;;;19.80;99.90;;;;;;4976865;28;20208;-65
2021/07/13 08:32:34;;;;;;;62.80;45.57;;;20.00;1.00;;;;;;4976851;28;20617;-65
2021/07/13 08:35:01;;;;;;;60.93;45.70;;;20.10;99.90;;;;;;4975446;28;20294;-65
2021/07/13 08:37:32;;;;;;;63.77;46.73;;;20.00;92.90;;;;;;4977861;28;20304;-65
2021/07/13 08:39:59;;;;;;;63.63;46.10;;;19.90;1.00;;;;;;4977387;28;20231;-65
2021/07/13 08:42:26;;;;;;;61.87;45.93;;;20.00;1.00;;;;;;4990292;28;20212;-63
2021/07/13 08:44:53;;;;;;;68.30;47.63;;;20.00;1.00;;;;;;4995043;28;20258;-63
2021/07/13 08:47:20;;;;;;;58.30;44.23;;;19.90;85.50;;;;;;4995116;28;20223;-62
2021/07/13 08:49:46;;;;;;;55.30;43.20;;;20.00;1.00;;;;;;4981607;28;20205;-63
2021/07/13 08:52:13;;;;;;;55.53;42.33;;;20.20;68.10;;;;;;4975366;28;20212;-61
2021/07/13 08:54:42;;;;;;;61.80;44.33;;;20.30;54.20;;;;;;4974817;28;20704;-62
2021/07/13 08:57:10;;;;;;;60.23;43.47;;;20.30;1.00;;;;;;4974770;28;20301;-62
2021/07/13 08:59:37;;;;;;;48.37;37.43;;;20.40;99.90;;;;;;4975297;28;20224;-64
2021/07/13 09:02:04;;;;;;;52.93;40.00;;;20.50;99.90;;;;;;4974849;28;20298;-65
2021/07/13 09:04:35;;;;;;;51.07;39.77;;;20.30;99.90;;;;;;4974810;28;20271;-66
2021/07/13 09:07:06;;;;;;;46.47;35.93;;;20.40;99.90;;;;;;4975381;28;20236;-65
2021/07/13 09:09:35;;;;;;;45.17;36.03;;;20.50;1.00;;;;;;4975181;28;20208;-65
2021/07/13 09:12:12;;;;;;;48.70;36.80;;;20.60;99.90;;;;;;4974984;28;20239;-65
2021/07/13 09:15:05;;;;;;;45.93;35.53;;;20.70;1.00;;;;;;4974985;28;20279;-65
2021/07/13 09:17:34;;;;;;;44.13;34.33;;;20.80;99.90;;;;;;4975270;28;20236;-64
2021/07/13 09:20:13;;;;;;;42.77;34.30;;;20.80;56.90;;;;;;4974738;28;20228;-65
2021/07/13 09:22:51;;;;;;;41.17;33.97;;;21.00;99.90;;;;;;4975198;28;20706;-67
2021/07/13 09:25:29;;;;;;;42.83;32.73;;;21.00;1.00;;;;;;4974821;28;20212;-65
2021/07/13 09:28:12;;;;;;;41.67;31.33;;;21.00;99.90;;;;;;4975158;28;20287;-64
2021/07/13 09:30:40;;;;;;;32.77;27.03;;;21.10;1.00;;;;;;4974457;28;20204;-67
2021/07/13 09:33:15;;;;;;;37.27;31.17;;;21.10;1.00;;;;;;4974700;28;20216;-65
2021/07/13 09:36:01;;;;;;;34.57;29.47;;;21.40;99.90;;;;;;4974641;28;20216;-64
2021/07/13 09:38:29;;;;;;;36.40;27.70;;;21.50;99.90;;;;;;4974740;28;20232;-65
2021/07/13 09:41:11;;;;;;;32.87;26.73;;;21.60;1.00;;;;;;4974824;28;20229;-64
2021/07/13 09:43:45;;;;;;;30.93;26.83;;;21.60;99.90;;;;;;4974870;28;20587;-64
2021/07/13 09:46:25;;;;;;;34.00;26.87;;;21.80;99.90;;;;;;4974737;28;20216;-63
2021/07/13 09:49:17;;;;;;;29.17;25.07;;;21.60;99.90;;;;;;4974496;28;20204;-64
2021/07/13 09:51:46;;;;;;;28.93;25.13;;;21.50;9.20;;;;;;4974209;28;20204;-63
2021/07/13 09:54:36;;;;;;;26.63;23.10;;;21.40;60.70;;;;;;4974244;28;20270;-62
2021/07/13 09:57:05;;;;;;;26.63;21.90;;;21.60;99.90;;;;;;4974462;28;20236;-63
2021/07/13 09:59:34;;;;;;;25.43;22.03;;;21.70;99.90;;;;;;4974192;28;20232;-64
2021/07/13 10:02:04;;;;;;;25.67;21.23;;;21.80;1.00;;;;;;4974361;28;20262;-67
2021/07/13 10:04:31;;;;;;;25.07;20.83;;;21.70;1.00;;;;;;4974527;28;20204;-64
2021/07/13 10:07:03;;;;;;;26.03;21.40;;;21.80;99.90;;;;;;4973768;28;20678;-64
2021/07/13 10:09:34;;;;;;;25.07;20.70;;;21.90;99.90;;;;;;4973432;28;20279;-65
2021/07/13 10:12:00;;;;;;;25.07;20.43;;;22.00;99.90;;;;;;4973987;28;20260;-65
2021/07/13 10:14:28;;;;;;;27.23;22.30;;;22.00;99.90;;;;;;4974089;28;20266;-63
2021/07/13 10:16:57;;;;;;;22.87;18.60;;;21.90;99.90;;;;;;4975171;28;20637;-64
2021/07/13 10:19:24;;;;;;;23.43;19.23;;;21.90;1.00;;;;;;4973819;28;20224;-66
2021/07/13 10:21:51;;;;;;;21.57;18.43;;;21.80;99.90;;;;;;4973807;28;20224;-67
2021/07/13 10:24:24;;;;;;;21.27;18.97;;;21.80;99.90;;;;;;4973843;28;20732;-67
2021/07/13 10:26:55;;;;;;;23.37;19.97;;;21.90;99.90;;;;;;4975034;28;20224;-64
2021/07/13 10:29:41;;;;;;;21.70;19.33;;;22.00;1.00;;;;;;4974203;28;20215;-65
2021/07/13 10:32:34;;;;;;;24.23;17.73;;;22.00;1.00;;;;;;4973897;28;20586;-65
2021/07/13 10:35:04;;;;;;;20.97;18.30;;;22.30;1.00;;;;;;4973766;28;20235;-67
2021/07/13 10:37:33;;;;;;;22.07;18.97;;;22.40;99.90;;;;;;4974017;28;20263;-65
2021/07/13 10:40:04;;;;;;;21.70;18.67;;;22.50;99.90;;;;;;4973017;28;20224;-63
2021/07/13 10:42:54;;;;;;;21.00;18.73;;;22.30;99.90;;;;;;4973882;28;20216;-64
2021/07/13 10:45:23;;;;;;;22.27;18.13;;;22.30;99.90;;;;;;4973354;28;20692;-64
2021/07/13 10:48:03;;;;;;;22.20;19.23;;;22.20;99.90;;;;;;4973515;28;20263;-63
2021/07/13 10:50:54;;;;;;;23.30;19.17;;;22.20;99.90;;;;;;4972796;28;20833;-64
2021/07/13 10:53:29;;;;;;;20.17;17.83;;;22.30;99.90;;;;;;4973662;28;20204;-65
2021/07/13 10:55:59;;;;;;;20.20;17.93;;;22.30;99.90;;;;;;4973371;28;20208;-65
2021/07/13 10:58:45;;;;;;;20.80;17.90;;;22.40;99.90;;;;;;4973314;28;20671;-66
2021/07/13 11:01:21;;;;;;;21.57;19.17;;;22.40;99.90;;;;;;4972835;28;20270;-65
2021/07/13 11:04:00;;;;;;;22.13;18.73;;;22.50;99.90;;;;;;4973234;28;20301;-65
2021/07/13 11:06:46;;;;;;;21.30;17.53;;;22.60;99.90;;;;;;4973220;28;20632;-64
2021/07/13 11:09:25;;;;;;;19.67;15.40;;;22.50;99.90;;;;;;4972935;28;20266;-65
2021/07/13 11:11:53;;;;;;;16.60;14.80;;;22.60;99.90;;;;;;4973212;28;20208;-67
2021/07/13 11:14:20;;;;;;;14.63;13.13;;;22.60;99.90;;;;;;4973080;28;20590;-65
2021/07/13 11:16:50;;;;;;;14.33;12.80;;;22.80;99.90;;;;;;4973243;28;20228;-64
2021/07/13 11:19:18;;;;;;;15.03;13.47;;;23.00;94.00;;;;;;4972864;28;20267;-65
2021/07/13 11:21:47;;;;;;;14.20;12.23;;;23.20;99.90;;;;;;4972704;28;20204;-64
2021/07/13 11:24:16;;;;;;;17.37;14.63;;;23.30;12.80;;;;;;4973014;28;20314;-64
2021/07/13 11:26:45;;;;;;;16.53;14.63;;;23.10;1.00;;;;;;4973052;28;20303;-63
2021/07/13 11:29:18;;;;;;;15.97;14.27;;;22.90;1.00;;;;;;4972864;28;20212;-64
2021/07/13 11:31:49;;;;;;;16.17;14.47;;;22.80;1.00;;;;;;4973247;28;20212;-64
2021/07/13 11:34:17;;;;;;;16.80;14.93;;;22.90;12.10;;;;;;4972404;28;20275;-64
2021/07/13 11:36:47;;;;;;;15.87;13.30;;;22.90;3.80;;;;;;4973029;28;20228;-64
2021/07/13 11:39:16;;;;;;;16.53;13.87;;;22.90;1.00;;;;;;4972753;28;20208;-64
2021/07/13 11:41:44;;;;;;;18.40;15.40;;;23.00;25.30;;;;;;4972597;28;20239;-64
2021/07/13 11:44:12;;;;;;;15.97;14.27;;;22.90;1.00;;;;;;4972586;28;20212;-65
2021/07/13 11:46:41;;;;;;;16.43;14.73;;;23.00;1.00;;;;;;4972767;28;20228;-65
2021/07/13 11:49:09;;;;;;;17.03;14.30;;;23.10;1.00;;;;;;4972598;28;20208;-64
2021/07/13 11:51:37;;;;;;;18.87;14.27;;;23.20;1.00;;;;;;4972776;28;20208;-64
2021/07/13 11:54:08;;;;;;;17.17;13.67;;;23.10;1.00;;;;;;4972722;28;20212;-64
2021/07/13 11:56:36;;;;;;;14.73;13.23;;;23.20;1.00;;;;;;4972444;28;20234;-64
2021/07/13 11:59:04;;;;;;;17.00;13.07;;;23.30;1.00;;;;;;4972640;28;20263;-64
2021/07/13 12:01:33;;;;;;;14.10;12.47;;;23.60;1.00;;;;;;4972084;28;20224;-66
2021/07/13 12:04:03;;;;;;;13.93;11.07;;;23.70;1.00;;;;;;4972418;28;20263;-66
2021/07/13 12:06:30;;;;;;;13.67;10.10;;;23.80;1.00;;;;;;4972553;28;20232;-66
2021/07/13 12:08:58;;;;;;;13.77;9.67;;;23.80;1.00;;;;;;4972655;28;20255;-67
2021/07/13 12:11:28;;;;;;;9.87;8.83;;;23.80;1.00;;;;;;4972257;28;20201;-64
2021/07/13 12:13:56;;;;;;;7.33;6.63;;;23.80;1.00;;;;;;4972182;28;20259;-65
2021/07/13 12:16:25;;;;;;;9.13;8.23;;;23.80;1.00;;;;;;4972253;28;20744;-65
2021/07/13 12:18:53;;;;;;;8.83;7.60;;;23.80;1.00;;;;;;4972548;28;20344;-66
2021/07/13 12:21:21;;;;;;;8.67;7.43;;;23.90;1.00;;;;;;4972278;28;20279;-65
2021/07/13 12:23:50;;;;;;;8.43;7.53;;;23.80;1.00;;;;;;4972290;28;20212;-65
2021/07/13 12:26:30;;;;;;;9.40;7.60;;;23.80;1.00;;;;;;4972182;28;20204;-66
2021/07/13 12:29:02;;;;;;;9.13;8.23;;;23.80;1.00;;;;;;4972456;28;20211;-64
2021/07/13 12:31:28;;;;;;;9.67;8.10;;;23.60;1.00;;;;;;4973538;28;20208;-65
2021/07/13 12:33:55;;;;;;;7.40;6.70;;;23.50;1.00;;;;;;4975865;28;20263;-66
2021/07/13 12:36:26;;;;;;;8.63;7.73;;;23.30;1.00;;;;;;4976692;28;20212;-66
2021/07/13 12:38:53;;;;;;;13.83;8.73;;;23.10;1.00;;;;;;4978142;28;20255;-65
2021/07/13 12:41:20;;;;;;;10.77;8.40;;;23.20;1.00;;;;;;4978664;28;20228;-67
2021/07/13 12:43:49;;;;;;;8.50;7.70;;;23.10;1.00;;;;;;4976074;28;20287;-64
2021/07/13 12:46:29;;;;;;;9.33;7.73;;;23.10;1.00;;;;;;4977578;28;20255;-67
2021/07/13 12:48:58;;;;;;;9.93;8.60;;;23.10;1.00;;;;;;4978748;28;20215;-65